createdAt,value
2023-07-18T00:02:13.366Z,101942.00
2023-07-18T00:04:41.408Z,101928.31
2023-07-18T00:07:08.777Z,101933.22
2023-07-18T00:09:38.637Z,101932.16
2023-07-18T00:12:10.032Z,101934.97
2023-07-18T00:14:39.660Z,101914.75
2023-07-18T00:17:12.375Z,101932.03
2023-07-18T00:19:41.332Z,101934.59
2023-07-18T00:22:09.009Z,101939.28
2023-07-18T00:24:39.625Z,101940.00
2023-07-18T00:27:07.756Z,101949.59
2023-07-18T00:29:35.239Z,101935.69
2023-07-18T00:32:08.516Z,101939.28
2023-07-18T00:34:36.798Z,101930.38
2023-07-18T00:37:04.299Z,101942.59
2023-07-18T00:39:31.315Z,101943.13
2023-07-18T00:42:01.746Z,101941.47
2023-07-18T00:44:28.752Z,101926.00
2023-07-18T00:46:58.394Z,101927.84
2023-07-18T00:49:26.804Z,101930.97
2023-07-18T00:51:56.347Z,101927.34
2023-07-18T00:54:25.568Z,101931.44
2023-07-18T00:56:52.695Z,101919.13
2023-07-18T00:59:21.078Z,101912.66
2023-07-18T01:01:49.548Z,101929.34
2023-07-18T01:04:19.626Z,101925.72
2023-07-18T01:06:50.474Z,101922.63
2023-07-18T01:09:23.322Z,101906.19
2023-07-18T01:11:53.878Z,101908.59
2023-07-18T01:14:23.142Z,101923.22
2023-07-18T01:16:50.154Z,101918.69
2023-07-18T01:19:16.849Z,101920.09
2023-07-18T01:21:43.811Z,101917.78
2023-07-18T01:24:11.314Z,101897.97
2023-07-18T01:26:38.088Z,101918.94
2023-07-18T01:29:05.471Z,101909.59
2023-07-18T01:31:35.466Z,101913.66
2023-07-18T01:34:03.994Z,101912.38
2023-07-18T01:36:30.945Z,101905.41
2023-07-18T01:38:58.485Z,101913.81
2023-07-18T01:41:25.299Z,101905.69
2023-07-18T01:43:51.893Z,101910.94
2023-07-18T01:46:18.647Z,101907.38
2023-07-18T01:48:45.386Z,101902.69
2023-07-18T01:51:12.189Z,101903.13
2023-07-18T01:53:39.085Z,101900.94
2023-07-18T01:56:07.214Z,101899.84
2023-07-18T01:58:35.017Z,101889.69
2023-07-18T02:01:07.274Z,101901.78
2023-07-18T02:03:34.683Z,101872.47
2023-07-18T02:06:04.397Z,101889.38
2023-07-18T02:08:31.270Z,101883.94
2023-07-18T02:10:59.953Z,101897.16
2023-07-18T02:13:26.595Z,101886.88
2023-07-18T02:15:53.199Z,101888.50
2023-07-18T02:18:20.148Z,101906.59
2023-07-18T02:20:47.145Z,101896.91
2023-07-18T02:23:13.901Z,101894.06
2023-07-18T02:25:40.728Z,101891.63
2023-07-18T02:28:08.804Z,101884.41
2023-07-18T02:30:36.465Z,101882.66
2023-07-18T02:33:06.273Z,101880.91
2023-07-18T02:35:33.064Z,101880.91
2023-07-18T02:38:00.033Z,101886.13
2023-07-18T02:40:26.669Z,101886.03
2023-07-18T02:42:53.417Z,101884.72
2023-07-18T02:45:21.380Z,101878.56
2023-07-18T02:47:48.056Z,101872.22
2023-07-18T02:50:14.786Z,101886.56
2023-07-18T02:52:41.500Z,101879.94
2023-07-18T02:55:08.825Z,101879.66
2023-07-18T02:57:37.213Z,101870.56
2023-07-18T03:00:07.893Z,101874.84
2023-07-18T03:02:35.586Z,101873.06
2023-07-18T03:05:03.197Z,101872.59
2023-07-18T03:07:29.902Z,101877.25
2023-07-18T03:09:56.938Z,101881.41
2023-07-18T03:12:23.663Z,101875.53
2023-07-18T03:14:51.032Z,101883.06
2023-07-18T03:17:18.122Z,101875.09
2023-07-18T03:19:44.860Z,101887.06
2023-07-18T03:22:12.709Z,101881.59
2023-07-18T03:24:39.505Z,101895.13
2023-07-18T03:27:06.480Z,101886.59
2023-07-18T03:29:33.269Z,101881.88
2023-07-18T03:32:02.209Z,101888.06
2023-07-18T03:34:29.886Z,101864.88
2023-07-18T03:36:56.903Z,101884.50
2023-07-18T03:39:23.835Z,101870.00
2023-07-18T03:41:50.748Z,101859.13
2023-07-18T03:44:17.407Z,101878.69
2023-07-18T03:46:44.452Z,101865.44
2023-07-18T03:49:11.239Z,101857.28
2023-07-18T03:51:38.164Z,101884.59
2023-07-18T03:54:06.936Z,101879.78
2023-07-18T03:56:34.473Z,101878.97
2023-07-18T03:59:01.088Z,101881.22
2023-07-18T04:01:27.853Z,101869.63
2023-07-18T04:03:54.717Z,101865.81
2023-07-18T04:06:22.990Z,101869.16
2023-07-18T04:08:49.686Z,101867.19
2023-07-18T04:11:16.376Z,101865.53
2023-07-18T04:13:43.062Z,101854.03
2023-07-18T04:16:10.182Z,101857.84
2023-07-18T04:18:38.146Z,101854.72
2023-07-18T04:21:05.096Z,101856.19
2023-07-18T04:23:35.069Z,101852.38
2023-07-18T04:26:04.215Z,101837.13
2023-07-18T04:28:35.427Z,101856.34
2023-07-18T04:31:03.208Z,101841.59
2023-07-18T04:33:40.674Z,101848.91
2023-07-18T04:36:08.776Z,101855.09
2023-07-18T04:38:36.224Z,101854.06
2023-07-18T04:41:06.484Z,101853.34
2023-07-18T04:43:33.222Z,101855.69
2023-07-18T04:46:00.114Z,101841.50
2023-07-18T04:48:27.216Z,101845.69
2023-07-18T04:50:59.508Z,101839.50
2023-07-18T04:53:30.970Z,101846.03
2023-07-18T04:55:58.179Z,101844.59
2023-07-18T04:58:26.529Z,101838.53
2023-07-18T05:00:56.525Z,101836.63
2023-07-18T05:03:24.066Z,101843.72
2023-07-18T05:05:50.834Z,101842.75
2023-07-18T05:08:18.355Z,101835.16
2023-07-18T05:10:48.693Z,101838.59
2023-07-18T05:13:15.424Z,101833.31
2023-07-18T05:15:43.337Z,101839.72
2023-07-18T05:18:21.650Z,101831.72
2023-07-18T05:20:55.021Z,101827.34
2023-07-18T05:23:22.025Z,101825.94
2023-07-18T05:25:52.011Z,101822.28
2023-07-18T05:28:24.536Z,101814.31
2023-07-18T05:30:51.399Z,101819.16
2023-07-18T05:33:18.525Z,101820.88
2023-07-18T05:35:45.312Z,101832.66
2023-07-18T05:38:11.922Z,101834.81
2023-07-18T05:40:40.962Z,101834.66
2023-07-18T05:43:07.894Z,101829.69
2023-07-18T05:45:35.032Z,101847.94
2023-07-18T05:48:01.785Z,101845.69
2023-07-18T05:50:28.872Z,101845.88
2023-07-18T05:52:55.687Z,101842.22
2023-07-18T05:55:31.260Z,101848.34
2023-07-18T05:57:58.128Z,101843.00
2023-07-18T06:00:24.835Z,101848.09
2023-07-18T06:02:51.912Z,101838.31
2023-07-18T06:05:18.871Z,101854.41
2023-07-18T06:07:45.854Z,101841.63
2023-07-18T06:10:38.059Z,101848.34
2023-07-18T06:13:11.955Z,101840.84
2023-07-18T06:15:40.912Z,101847.91
2023-07-18T06:18:23.539Z,101840.50
2023-07-18T06:20:51.194Z,101842.47
2023-07-18T06:26:18.896Z,101836.97
2023-07-18T06:28:45.624Z,101847.69
2023-07-18T06:31:27.378Z,101831.84
2023-07-18T06:33:54.857Z,101843.28
2023-07-18T06:36:24.982Z,101839.84
2023-07-18T06:38:51.924Z,101836.84
2023-07-18T06:41:19.668Z,101848.69
2023-07-18T06:43:47.256Z,101825.59
2023-07-18T06:46:26.804Z,101843.34
2023-07-18T06:48:58.940Z,101838.06
2023-07-18T06:51:30.575Z,101846.78
2023-07-18T06:53:57.765Z,101836.22
2023-07-18T06:56:24.656Z,101827.38
2023-07-18T06:58:51.508Z,101833.94
2023-07-18T07:01:18.606Z,101830.19
2023-07-18T07:03:46.064Z,101828.47
2023-07-18T07:06:14.754Z,101819.47
2023-07-18T07:08:41.962Z,101820.75
2023-07-18T07:11:09.600Z,101829.63
2023-07-18T07:13:37.613Z,101823.19
2023-07-18T07:16:06.624Z,101821.44
2023-07-18T07:18:34.487Z,101825.19
2023-07-18T07:21:01.696Z,101823.53
2023-07-18T07:27:41.781Z,101829.50
2023-07-18T07:44:23.797Z,101829.56
2023-07-18T08:05:45.236Z,101806.78
2023-07-18T08:29:32.187Z,101793.22
2023-07-18T10:06:45.044Z,101725.56
2023-07-18T10:09:12.174Z,101722.31
2023-07-18T10:12:01.542Z,101714.47
2023-07-18T10:14:37.159Z,101712.84
2023-07-18T10:17:09.078Z,101695.66
2023-07-18T10:19:49.744Z,101690.25
2023-07-18T10:22:28.071Z,101681.63
2023-07-18T10:25:14.395Z,101704.13
2023-07-18T10:27:50.927Z,101679.81
2023-07-18T10:30:20.308Z,101693.31
2023-07-18T10:35:58.902Z,101664.38
2023-07-18T10:38:35.882Z,101669.78
2023-07-18T10:41:02.955Z,101671.41
2023-07-18T10:43:32.894Z,101676.47
2023-07-18T10:46:07.572Z,101681.03
2023-07-18T10:48:34.564Z,101675.16
2023-07-18T10:51:01.674Z,101677.31
2023-07-18T10:53:29.580Z,101674.63
2023-07-18T10:55:58.961Z,101666.59
2023-07-18T10:58:26.149Z,101659.59
2023-07-18T11:01:02.735Z,101644.03
2023-07-18T11:03:32.524Z,101654.53
2023-07-18T11:10:36.349Z,101664.44
2023-07-18T11:13:03.622Z,101666.00
2023-07-18T11:15:30.737Z,101671.91
2023-07-18T11:17:57.756Z,101663.06
2023-07-18T11:20:32.726Z,101652.38
2023-07-18T11:23:02.959Z,101637.09
2023-07-18T11:25:30.196Z,101639.22
2023-07-18T11:27:57.054Z,101642.97
2023-07-18T11:30:35.124Z,101645.38
2023-07-18T11:33:13.492Z,101660.13
2023-07-18T11:44:23.932Z,101657.88
2023-07-18T11:47:11.412Z,101621.50
2023-07-18T11:49:38.432Z,101629.56
2023-07-18T11:52:13.748Z,101633.03
2023-07-18T13:00:11.429Z,101568.38
2023-07-18T13:07:18.344Z,101563.03
2023-07-18T13:14:05.788Z,101528.25
2023-07-18T13:16:41.618Z,101546.06
2023-07-18T13:19:56.667Z,101519.66
2023-07-18T13:23:34.628Z,101537.91
2023-07-18T13:40:53.214Z,101501.84
2023-07-18T14:44:39.319Z,101450.66
2023-07-18T14:47:56.583Z,101448.88
2023-07-18T15:46:46.704Z,101408.25
2023-07-18T16:45:09.586Z,101330.50
2023-07-18T16:48:03.030Z,101330.84
2023-07-18T17:32:14.787Z,101308.78
2023-07-18T17:35:15.541Z,101301.97
2023-07-18T17:37:45.716Z,101304.94
2023-07-18T17:40:13.029Z,101305.28
2023-07-18T17:46:21.810Z,101294.75
2023-07-18T17:49:09.967Z,101302.22
2023-07-18T17:54:40.449Z,101298.72
2023-07-18T17:57:11.372Z,101306.72
2023-07-18T17:59:51.288Z,101292.94
2023-07-18T18:02:29.571Z,101290.66
2023-07-18T18:08:59.916Z,101296.25
2023-07-18T18:11:44.128Z,101292.81
2023-07-18T18:14:46.007Z,101314.13
2023-07-18T18:17:13.260Z,101299.59
2023-07-18T18:19:40.570Z,101291.69
2023-07-18T18:25:10.171Z,101294.84
2023-07-18T18:31:06.430Z,101311.13
2023-07-18T18:38:07.350Z,101302.91
2023-07-18T18:40:59.773Z,101319.97
2023-07-18T18:44:23.720Z,101309.28
2023-07-18T18:46:57.649Z,101322.94
2023-07-18T18:52:53.827Z,101299.63
2023-07-18T19:01:57.380Z,101315.06
2023-07-18T19:04:38.378Z,101310.81
2023-07-18T19:07:46.733Z,101330.31
2023-07-18T19:11:08.182Z,101333.41
2023-07-18T19:16:16.801Z,101334.53
2023-07-18T19:18:18.998Z,101320.19
2023-07-18T19:20:49.987Z,101309.00
2023-07-18T19:23:41.914Z,101317.53
2023-07-18T19:26:16.852Z,101312.09
2023-07-18T19:28:43.991Z,101315.34
2023-07-18T19:31:14.147Z,101299.75
2023-07-18T19:33:56.753Z,101302.13
2023-07-18T19:36:23.693Z,101305.84
2023-07-18T20:20:28.868Z,101306.50
2023-07-18T20:26:23.167Z,101289.19
2023-07-18T20:29:37.988Z,101310.00
2023-07-18T20:35:32.949Z,101310.50
2023-07-18T20:38:00.675Z,101312.59
2023-07-18T20:40:52.591Z,101305.34
2023-07-18T20:43:22.487Z,101296.72
2023-07-18T20:45:57.971Z,101293.66
2023-07-18T20:48:25.911Z,101304.06
2023-07-18T20:50:53.063Z,101302.25
2023-07-18T20:53:21.020Z,101299.47
2023-07-18T20:58:53.649Z,101281.41
2023-07-18T21:01:22.208Z,101295.97
2023-07-18T21:03:50.917Z,101300.41
2023-07-18T21:06:21.782Z,101295.31
2023-07-18T21:08:54.541Z,101302.91
2023-07-18T21:11:21.857Z,101311.22
2023-07-18T21:13:50.725Z,101306.50
2023-07-18T21:16:17.730Z,101301.22
2023-07-18T21:18:53.670Z,101318.00
2023-07-18T21:21:20.815Z,101313.47
2023-07-18T21:23:47.641Z,101299.13
2023-07-18T21:26:17.614Z,101295.44
2023-07-18T21:29:02.058Z,101296.16
2023-07-18T21:31:31.161Z,101300.34
2023-07-18T22:45:17.093Z,101267.06
2023-07-18T22:47:44.347Z,101260.16
2023-07-18T22:50:11.513Z,101266.97
2023-07-18T22:52:38.268Z,101262.03
2023-07-18T22:55:07.085Z,101264.59
2023-07-18T22:57:33.886Z,101269.13
2023-07-18T23:00:00.722Z,101259.91
2023-07-18T23:02:27.799Z,101260.25
2023-07-18T23:04:54.634Z,101257.03
2023-07-18T23:07:22.446Z,101264.75
2023-07-18T23:09:52.338Z,101258.50
2023-07-18T23:12:22.186Z,101254.13
2023-07-18T23:14:49.121Z,101252.50
2023-07-18T23:17:15.870Z,101254.94
2023-07-18T23:19:43.208Z,101264.59
2023-07-18T23:22:10.523Z,101262.97
2023-07-18T23:27:48.822Z,101263.56
2023-07-18T23:30:36.140Z,101256.31
2023-07-18T23:33:29.518Z,101257.34
2023-07-18T23:36:13.564Z,101257.47
2023-07-18T23:38:40.692Z,101255.84
2023-07-18T23:41:15.976Z,101252.59
2023-07-18T23:43:42.775Z,101243.84
2023-07-18T23:46:15.043Z,101228.19
2023-07-18T23:48:41.906Z,101247.78
2023-07-18T23:51:08.904Z,101237.28
2023-07-18T23:53:37.018Z,101234.16
2023-07-18T23:56:03.862Z,101229.09
2023-07-18T23:58:30.718Z,101240.84
